sensor_id;sensor_type;location;lat;lon;timestamp;temperature;humidity
1468;DHT22;727;48.892;9.544;2022-08-05T00:01:00;22.30;83.80
1468;DHT22;727;48.892;9.544;2022-08-05T00:50:38;22.00;89.70
1468;DHT22;727;48.892;9.544;2022-08-05T00:53:05;22.10;89.90
1468;DHT22;727;48.892;9.544;2022-08-05T00:55:31;22.00;90.00
1468;DHT22;727;48.892;9.544;2022-08-05T00:57:58;21.90;90.10
1468;DHT22;727;48.892;9.544;2022-08-05T01:00:25;21.90;90.40
1468;DHT22;727;48.892;9.544;2022-08-05T01:06:37;21.80;90.60
1468;DHT22;727;48.892;9.544;2022-08-05T01:09:04;21.70;91.10
1468;DHT22;727;48.892;9.544;2022-08-05T01:11:34;21.60;91.40
1468;DHT22;727;48.892;9.544;2022-08-05T01:14:05;21.60;91.60
1468;DHT22;727;48.892;9.544;2022-08-05T01:16:41;21.50;91.70
1468;DHT22;727;48.892;9.544;2022-08-05T01:19:22;21.50;92.00
1468;DHT22;727;48.892;9.544;2022-08-05T01:22:17;21.40;92.20
1468;DHT22;727;48.892;9.544;2022-08-05T01:25:02;21.50;92.60
1468;DHT22;727;48.892;9.544;2022-08-05T01:27:48;21.40;92.70
1468;DHT22;727;48.892;9.544;2022-08-05T01:30:17;21.40;93.00
1468;DHT22;727;48.892;9.544;2022-08-05T01:32:46;21.40;93.10
1468;DHT22;727;48.892;9.544;2022-08-05T01:35:17;21.40;93.30
1468;DHT22;727;48.892;9.544;2022-08-05T01:37:49;21.30;93.50
1468;DHT22;727;48.892;9.544;2022-08-05T01:40:17;21.30;93.70
1468;DHT22;727;48.892;9.544;2022-08-05T01:42:48;21.20;93.90
1468;DHT22;727;48.892;9.544;2022-08-05T01:45:17;21.20;94.30
1468;DHT22;727;48.892;9.544;2022-08-05T01:47:45;21.20;94.60
1468;DHT22;727;48.892;9.544;2022-08-05T01:50:17;21.20;94.80
1468;DHT22;727;48.892;9.544;2022-08-05T01:52:46;21.10;95.00
1468;DHT22;727;48.892;9.544;2022-08-05T01:55:16;21.10;95.20
1468;DHT22;727;48.892;9.544;2022-08-05T01:57:47;21.10;95.50
1468;DHT22;727;48.892;9.544;2022-08-05T02:00:14;21.10;95.70
1468;DHT22;727;48.892;9.544;2022-08-05T02:02:46;21.00;95.90
1468;DHT22;727;48.892;9.544;2022-08-05T02:05:14;21.00;96.10
1468;DHT22;727;48.892;9.544;2022-08-05T02:07:42;21.00;96.20
1468;DHT22;727;48.892;9.544;2022-08-05T02:10:09;21.00;96.50
1468;DHT22;727;48.892;9.544;2022-08-05T02:12:42;21.00;96.70
1468;DHT22;727;48.892;9.544;2022-08-05T02:15:13;21.00;96.70
1468;DHT22;727;48.892;9.544;2022-08-05T02:17:48;21.00;96.60
1468;DHT22;727;48.892;9.544;2022-08-05T02:20:20;21.00;96.80
1468;DHT22;727;48.892;9.544;2022-08-05T02:22:54;21.00;96.80
1468;DHT22;727;48.892;9.544;2022-08-05T02:25:25;21.00;97.00
1468;DHT22;727;48.892;9.544;2022-08-05T02:27:54;21.00;96.90
1468;DHT22;727;48.892;9.544;2022-08-05T02:30:24;21.00;97.10
1468;DHT22;727;48.892;9.544;2022-08-05T02:32:54;21.00;96.90
1468;DHT22;727;48.892;9.544;2022-08-05T02:35:23;21.00;97.10
1468;DHT22;727;48.892;9.544;2022-08-05T02:37:52;21.00;96.80
1468;DHT22;727;48.892;9.544;2022-08-05T02:40:20;21.10;97.10
1468;DHT22;727;48.892;9.544;2022-08-05T02:42:48;21.10;96.70
1468;DHT22;727;48.892;9.544;2022-08-05T02:45:16;21.10;96.60
1468;DHT22;727;48.892;9.544;2022-08-05T02:47:45;21.10;96.60
1468;DHT22;727;48.892;9.544;2022-08-05T02:50:13;21.20;96.50
1468;DHT22;727;48.892;9.544;2022-08-05T02:52:41;21.20;96.50
1468;DHT22;727;48.892;9.544;2022-08-05T02:55:09;21.20;96.50
1468;DHT22;727;48.892;9.544;2022-08-05T02:57:38;21.20;96.40
1468;DHT22;727;48.892;9.544;2022-08-05T03:00:06;21.20;96.50
1468;DHT22;727;48.892;9.544;2022-08-05T03:02:37;21.10;96.60
1468;DHT22;727;48.892;9.544;2022-08-05T03:05:08;21.10;96.50
1468;DHT22;727;48.892;9.544;2022-08-05T03:07:35;21.20;96.60
1468;DHT22;727;48.892;9.544;2022-08-05T03:10:04;21.10;96.80
1468;DHT22;727;48.892;9.544;2022-08-05T03:12:32;21.00;96.80
1468;DHT22;727;48.892;9.544;2022-08-05T03:14:59;21.00;97.10
1468;DHT22;727;48.892;9.544;2022-08-05T03:17:26;20.90;97.10
1468;DHT22;727;48.892;9.544;2022-08-05T03:19:52;20.90;97.20
1468;DHT22;727;48.892;9.544;2022-08-05T03:22:20;20.90;97.40
1468;DHT22;727;48.892;9.544;2022-08-05T03:24:48;20.90;97.50
1468;DHT22;727;48.892;9.544;2022-08-05T03:27:15;20.90;97.60
1468;DHT22;727;48.892;9.544;2022-08-05T03:29:42;20.90;97.70
1468;DHT22;727;48.892;9.544;2022-08-05T03:32:10;20.90;97.90
1468;DHT22;727;48.892;9.544;2022-08-05T03:34:37;20.80;97.90
1468;DHT22;727;48.892;9.544;2022-08-05T03:37:05;20.70;98.20
1468;DHT22;727;48.892;9.544;2022-08-05T03:39:33;20.70;98.40
1468;DHT22;727;48.892;9.544;2022-08-05T03:42:00;20.60;98.70
1468;DHT22;727;48.892;9.544;2022-08-05T03:44:26;20.50;98.80
1468;DHT22;727;48.892;9.544;2022-08-05T03:46:53;20.50;98.90
1468;DHT22;727;48.892;9.544;2022-08-05T03:49:20;20.40;99.20
1468;DHT22;727;48.892;9.544;2022-08-05T03:51:52;20.50;99.20
1468;DHT22;727;48.892;9.544;2022-08-05T03:54:27;20.50;99.30
1468;DHT22;727;48.892;9.544;2022-08-05T03:56:58;20.50;99.30
1468;DHT22;727;48.892;9.544;2022-08-05T03:59:31;20.50;99.40
1468;DHT22;727;48.892;9.544;2022-08-05T04:02:00;20.40;99.50
1468;DHT22;727;48.892;9.544;2022-08-05T04:04:28;20.40;99.90
1468;DHT22;727;48.892;9.544;2022-08-05T04:06:57;20.30;99.90
1468;DHT22;727;48.892;9.544;2022-08-05T04:09:25;20.30;99.90
1468;DHT22;727;48.892;9.544;2022-08-05T04:11:53;20.30;99.90
1468;DHT22;727;48.892;9.544;2022-08-05T04:14:21;20.20;99.90
1468;DHT22;727;48.892;9.544;2022-08-05T04:16:48;20.20;99.90
1468;DHT22;727;48.892;9.544;2022-08-05T04:19:14;20.20;99.90
1468;DHT22;727;48.892;9.544;2022-08-05T04:21:41;20.20;99.90
1468;DHT22;727;48.892;9.544;2022-08-05T04:24:08;20.20;99.90
1468;DHT22;727;48.892;9.544;2022-08-05T04:26:35;20.30;99.90
1468;DHT22;727;48.892;9.544;2022-08-05T04:29:01;20.30;99.90
1468;DHT22;727;48.892;9.544;2022-08-05T04:31:29;20.40;99.90
1468;DHT22;727;48.892;9.544;2022-08-05T04:33:56;20.50;99.90
1468;DHT22;727;48.892;9.544;2022-08-05T04:36:23;20.80;99.90
1468;DHT22;727;48.892;9.544;2022-08-05T04:38:49;21.30;99.10
1468;DHT22;727;48.892;9.544;2022-08-05T04:41:16;21.50;97.70
1468;DHT22;727;48.892;9.544;2022-08-05T04:43:43;21.50;97.10
1468;DHT22;727;48.892;9.544;2022-08-05T04:46:10;21.50;97.30
1468;DHT22;727;48.892;9.544;2022-08-05T04:48:38;21.60;97.40
1468;DHT22;727;48.892;9.544;2022-08-05T04:51:05;21.70;96.80
1468;DHT22;727;48.892;9.544;2022-08-05T04:53:31;21.80;96.60
1468;DHT22;727;48.892;9.544;2022-08-05T04:55:58;21.90;96.60
1468;DHT22;727;48.892;9.544;2022-08-05T04:58:25;21.90;96.40
1468;DHT22;727;48.892;9.544;2022-08-05T05:00:51;21.80;96.50
1468;DHT22;727;48.892;9.544;2022-08-05T05:03:18;21.80;96.70
1468;DHT22;727;48.892;9.544;2022-08-05T05:05:46;21.80;96.90
1468;DHT22;727;48.892;9.544;2022-08-05T05:08:13;22.40;96.90
1468;DHT22;727;48.892;9.544;2022-08-05T05:10:41;23.00;95.10
1468;DHT22;727;48.892;9.544;2022-08-05T05:13:08;23.10;94.30
1468;DHT22;727;48.892;9.544;2022-08-05T05:15:35;22.90;94.40
1468;DHT22;727;48.892;9.544;2022-08-05T05:18:02;22.60;95.30
1468;DHT22;727;48.892;9.544;2022-08-05T05:20:29;22.40;96.30
1468;DHT22;727;48.892;9.544;2022-08-05T05:22:59;22.40;96.40
1468;DHT22;727;48.892;9.544;2022-08-05T05:25:28;22.60;96.50
1468;DHT22;727;48.892;9.544;2022-08-05T05:27:55;23.70;95.30
1468;DHT22;727;48.892;9.544;2022-08-05T05:30:22;25.20;92.50
1468;DHT22;727;48.892;9.544;2022-08-05T05:32:49;26.40;89.40
1468;DHT22;727;48.892;9.544;2022-08-05T05:35:16;27.60;82.80
1468;DHT22;727;48.892;9.544;2022-08-05T05:37:47;28.70;76.20
1468;DHT22;727;48.892;9.544;2022-08-05T05:40:16;29.70;71.30
1468;DHT22;727;48.892;9.544;2022-08-05T05:42:43;30.00;67.40
1468;DHT22;727;48.892;9.544;2022-08-05T05:45:10;30.20;66.80
1468;DHT22;727;48.892;9.544;2022-08-05T05:47:37;30.20;65.30
1468;DHT22;727;48.892;9.544;2022-08-05T05:50:06;30.20;65.30
1468;DHT22;727;48.892;9.544;2022-08-05T05:52:32;30.50;64.30
1468;DHT22;727;48.892;9.544;2022-08-05T05:54:59;30.70;63.60
1468;DHT22;727;48.892;9.544;2022-08-05T05:57:30;31.20;61.90
1468;DHT22;727;48.892;9.544;2022-08-05T05:59:56;31.50;60.40
1468;DHT22;727;48.892;9.544;2022-08-05T06:02:23;31.50;59.90
1468;DHT22;727;48.892;9.544;2022-08-05T06:04:50;31.80;59.40
1468;DHT22;727;48.892;9.544;2022-08-05T06:07:16;32.00;58.80
1468;DHT22;727;48.892;9.544;2022-08-05T06:09:43;32.60;57.80
1468;DHT22;727;48.892;9.544;2022-08-05T06:12:10;32.90;57.50
1468;DHT22;727;48.892;9.544;2022-08-05T06:14:38;33.30;56.80
1468;DHT22;727;48.892;9.544;2022-08-05T06:17:06;33.50;56.10
1468;DHT22;727;48.892;9.544;2022-08-05T06:19:33;33.60;55.30
1468;DHT22;727;48.892;9.544;2022-08-05T06:22:00;33.70;55.50
1468;DHT22;727;48.892;9.544;2022-08-05T06:24:26;33.30;55.60
1468;DHT22;727;48.892;9.544;2022-08-05T06:26:53;33.20;55.90
1468;DHT22;727;48.892;9.544;2022-08-05T06:29:20;32.60;55.80
1468;DHT22;727;48.892;9.544;2022-08-05T06:31:48;31.80;58.40
1468;DHT22;727;48.892;9.544;2022-08-05T06:34:14;31.30;58.70
1468;DHT22;727;48.892;9.544;2022-08-05T06:36:41;30.50;59.90
1468;DHT22;727;48.892;9.544;2022-08-05T06:39:08;29.70;62.40
1468;DHT22;727;48.892;9.544;2022-08-05T06:41:35;29.30;63.70
1468;DHT22;727;48.892;9.544;2022-08-05T06:44:02;28.60;65.80
1468;DHT22;727;48.892;9.544;2022-08-05T06:46:29;28.10;67.70
1468;DHT22;727;48.892;9.544;2022-08-05T06:48:57;27.90;69.40
1468;DHT22;727;48.892;9.544;2022-08-05T06:51:24;28.00;69.70
1468;DHT22;727;48.892;9.544;2022-08-05T06:53:50;28.20;67.80
1468;DHT22;727;48.892;9.544;2022-08-05T06:56:17;28.20;68.90
1468;DHT22;727;48.892;9.544;2022-08-05T06:58:44;28.20;68.30
1468;DHT22;727;48.892;9.544;2022-08-05T07:01:10;28.40;68.40
1468;DHT22;727;48.892;9.544;2022-08-05T07:03:37;28.70;67.80
1468;DHT22;727;48.892;9.544;2022-08-05T07:06:06;29.10;66.70
1468;DHT22;727;48.892;9.544;2022-08-05T07:08:32;29.40;64.90
1468;DHT22;727;48.892;9.544;2022-08-05T07:10:59;29.40;64.30
1468;DHT22;727;48.892;9.544;2022-08-05T07:13:26;29.60;64.70
1468;DHT22;727;48.892;9.544;2022-08-05T07:16:10;29.90;63.80
1468;DHT22;727;48.892;9.544;2022-08-05T07:18:54;30.10;62.90
1468;DHT22;727;48.892;9.544;2022-08-05T07:21:22;30.10;60.60
1468;DHT22;727;48.892;9.544;2022-08-05T07:23:49;30.10;60.70
1468;DHT22;727;48.892;9.544;2022-08-05T07:26:15;30.30;59.80
1468;DHT22;727;48.892;9.544;2022-08-05T07:28:42;30.70;59.20
1468;DHT22;727;48.892;9.544;2022-08-05T07:31:09;30.50;57.10
1468;DHT22;727;48.892;9.544;2022-08-05T07:33:35;30.70;57.40
1468;DHT22;727;48.892;9.544;2022-08-05T07:36:03;30.50;56.80
1468;DHT22;727;48.892;9.544;2022-08-05T07:38:31;30.70;57.10
1468;DHT22;727;48.892;9.544;2022-08-05T07:40:58;30.80;56.40
1468;DHT22;727;48.892;9.544;2022-08-05T07:43:24;30.80;56.40
1468;DHT22;727;48.892;9.544;2022-08-05T07:45:51;31.10;56.00
1468;DHT22;727;48.892;9.544;2022-08-05T07:48:18;31.40;55.40
1468;DHT22;727;48.892;9.544;2022-08-05T07:50:44;31.40;54.50
1468;DHT22;727;48.892;9.544;2022-08-05T07:53:11;31.20;55.20
1468;DHT22;727;48.892;9.544;2022-08-05T07:55:39;31.30;55.10
1468;DHT22;727;48.892;9.544;2022-08-05T07:58:06;31.30;55.20
1468;DHT22;727;48.892;9.544;2022-08-05T08:00:33;31.50;54.40
1468;DHT22;727;48.892;9.544;2022-08-05T08:02:59;31.50;54.00
1468;DHT22;727;48.892;9.544;2022-08-05T08:05:26;31.50;53.10
1468;DHT22;727;48.892;9.544;2022-08-05T08:07:53;31.10;54.20
1468;DHT22;727;48.892;9.544;2022-08-05T08:10:20;31.10;53.70
1468;DHT22;727;48.892;9.544;2022-08-05T08:12:49;31.30;53.60
1468;DHT22;727;48.892;9.544;2022-08-05T08:15:16;31.20;53.70
1468;DHT22;727;48.892;9.544;2022-08-05T08:17:43;31.20;53.60
1468;DHT22;727;48.892;9.544;2022-08-05T08:20:10;31.40;53.70
1468;DHT22;727;48.892;9.544;2022-08-05T08:22:37;31.50;52.90
1468;DHT22;727;48.892;9.544;2022-08-05T08:25:05;31.60;53.10
1468;DHT22;727;48.892;9.544;2022-08-05T08:27:32;31.40;53.60
1468;DHT22;727;48.892;9.544;2022-08-05T08:30:00;31.50;54.00
1468;DHT22;727;48.892;9.544;2022-08-05T08:32:27;32.10;53.50
1468;DHT22;727;48.892;9.544;2022-08-05T08:34:53;32.20;51.40
1468;DHT22;727;48.892;9.544;2022-08-05T08:37:20;32.10;51.40
1468;DHT22;727;48.892;9.544;2022-08-05T08:39:46;31.90;51.60
1468;DHT22;727;48.892;9.544;2022-08-05T08:42:13;32.10;51.30
1468;DHT22;727;48.892;9.544;2022-08-05T08:44:41;31.50;50.80
1468;DHT22;727;48.892;9.544;2022-08-05T08:47:10;31.50;51.00
1468;DHT22;727;48.892;9.544;2022-08-05T08:49:42;31.10;51.40
1468;DHT22;727;48.892;9.544;2022-08-05T08:52:11;31.20;52.00
1468;DHT22;727;48.892;9.544;2022-08-05T08:54:38;31.30;51.10
1468;DHT22;727;48.892;9.544;2022-08-05T08:57:06;31.60;51.20
1468;DHT22;727;48.892;9.544;2022-08-05T08:59:33;31.90;51.20
1468;DHT22;727;48.892;9.544;2022-08-05T09:02:04;32.30;49.50
1468;DHT22;727;48.892;9.544;2022-08-05T09:04:34;32.50;49.20
1468;DHT22;727;48.892;9.544;2022-08-05T09:07:03;32.70;49.30
1468;DHT22;727;48.892;9.544;2022-08-05T09:09:31;32.90;48.60
1468;DHT22;727;48.892;9.544;2022-08-05T09:11:58;32.90;48.50
1468;DHT22;727;48.892;9.544;2022-08-05T09:14:25;33.30;48.40
1468;DHT22;727;48.892;9.544;2022-08-05T09:16:52;33.40;47.70
1468;DHT22;727;48.892;9.544;2022-08-05T09:19:19;33.20;47.50
1468;DHT22;727;48.892;9.544;2022-08-05T09:21:47;33.10;48.40
1468;DHT22;727;48.892;9.544;2022-08-05T09:24:14;32.80;48.40
1468;DHT22;727;48.892;9.544;2022-08-05T09:26:45;32.30;48.70
1468;DHT22;727;48.892;9.544;2022-08-05T09:29:12;32.50;48.80
1468;DHT22;727;48.892;9.544;2022-08-05T09:31:39;32.90;48.90
1468;DHT22;727;48.892;9.544;2022-08-05T09:34:09;33.10;47.70
1468;DHT22;727;48.892;9.544;2022-08-05T09:36:41;33.00;48.10
1468;DHT22;727;48.892;9.544;2022-08-05T09:39:12;32.90;48.00
1468;DHT22;727;48.892;9.544;2022-08-05T09:41:55;32.90;48.80
1468;DHT22;727;48.892;9.544;2022-08-05T09:44:33;33.30;49.40
1468;DHT22;727;48.892;9.544;2022-08-05T09:47:08;33.90;47.30
1468;DHT22;727;48.892;9.544;2022-08-05T09:49:39;33.90;47.00
1468;DHT22;727;48.892;9.544;2022-08-05T09:52:19;34.10;46.20
1468;DHT22;727;48.892;9.544;2022-08-05T09:54:56;33.80;46.20
1468;DHT22;727;48.892;9.544;2022-08-05T09:57:32;33.80;47.10
1468;DHT22;727;48.892;9.544;2022-08-05T10:00:00;34.00;46.10
1468;DHT22;727;48.892;9.544;2022-08-05T10:02:30;34.20;45.60
1468;DHT22;727;48.892;9.544;2022-08-05T10:05:03;33.70;45.70
1468;DHT22;727;48.892;9.544;2022-08-05T10:07:42;32.90;46.60
1468;DHT22;727;48.892;9.544;2022-08-05T10:10:10;32.50;48.00
1468;DHT22;727;48.892;9.544;2022-08-05T10:12:45;33.00;47.40
1468;DHT22;727;48.892;9.544;2022-08-05T10:15:30;33.60;47.00
1468;DHT22;727;48.892;9.544;2022-08-05T10:18:06;34.40;45.50
1468;DHT22;727;48.892;9.544;2022-08-05T10:20:35;34.80;44.20
1468;DHT22;727;48.892;9.544;2022-08-05T10:23:02;35.10;43.40
1468;DHT22;727;48.892;9.544;2022-08-05T10:25:31;35.10;43.80
1468;DHT22;727;48.892;9.544;2022-08-05T10:27:57;35.10;43.80
1468;DHT22;727;48.892;9.544;2022-08-05T10:30:24;35.20;43.70
1468;DHT22;727;48.892;9.544;2022-08-05T10:32:51;35.20;42.20
1468;DHT22;727;48.892;9.544;2022-08-05T10:35:19;35.10;42.60
1468;DHT22;727;48.892;9.544;2022-08-05T10:37:46;35.30;42.40
1468;DHT22;727;48.892;9.544;2022-08-05T10:40:21;35.70;42.50
1468;DHT22;727;48.892;9.544;2022-08-05T10:42:51;36.30;40.90
1468;DHT22;727;48.892;9.544;2022-08-05T10:45:24;36.20;40.90
1468;DHT22;727;48.892;9.544;2022-08-05T10:47:52;36.30;40.10
1468;DHT22;727;48.892;9.544;2022-08-05T10:50:19;35.90;40.40
1468;DHT22;727;48.892;9.544;2022-08-05T10:52:47;35.70;40.80
1468;DHT22;727;48.892;9.544;2022-08-05T10:55:19;35.70;41.80
1468;DHT22;727;48.892;9.544;2022-08-05T10:57:46;35.70;42.00
1468;DHT22;727;48.892;9.544;2022-08-05T11:00:17;35.90;41.50
1468;DHT22;727;48.892;9.544;2022-08-05T11:03:09;36.00;41.70
1468;DHT22;727;48.892;9.544;2022-08-05T11:05:37;36.00;40.50
1468;DHT22;727;48.892;9.544;2022-08-05T11:08:06;35.30;41.80
1468;DHT22;727;48.892;9.544;2022-08-05T11:10:34;35.20;42.50
1468;DHT22;727;48.892;9.544;2022-08-05T11:13:03;35.10;42.50
1468;DHT22;727;48.892;9.544;2022-08-05T11:15:33;35.30;43.00
1468;DHT22;727;48.892;9.544;2022-08-05T11:18:21;35.30;42.20
1468;DHT22;727;48.892;9.544;2022-08-05T11:20:49;35.30;42.70
1468;DHT22;727;48.892;9.544;2022-08-05T11:23:35;35.90;42.20
1468;DHT22;727;48.892;9.544;2022-08-05T11:26:03;36.00;41.00
1468;DHT22;727;48.892;9.544;2022-08-05T11:28:38;35.80;41.40
1468;DHT22;727;48.892;9.544;2022-08-05T11:31:28;35.60;41.70
1468;DHT22;727;48.892;9.544;2022-08-05T11:33:59;35.40;41.70
1468;DHT22;727;48.892;9.544;2022-08-05T11:36:43;35.70;42.10
1468;DHT22;727;48.892;9.544;2022-08-05T11:39:13;36.00;40.80
1468;DHT22;727;48.892;9.544;2022-08-05T11:41:40;36.30;40.40
1468;DHT22;727;48.892;9.544;2022-08-05T11:44:09;36.30;40.10
1468;DHT22;727;48.892;9.544;2022-08-05T11:46:39;36.30;40.80
1468;DHT22;727;48.892;9.544;2022-08-05T11:49:07;36.30;40.00
1468;DHT22;727;48.892;9.544;2022-08-05T11:51:34;36.20;39.40
1468;DHT22;727;48.892;9.544;2022-08-05T11:54:01;35.70;39.80
1468;DHT22;727;48.892;9.544;2022-08-05T11:56:42;35.60;40.40
1468;DHT22;727;48.892;9.544;2022-08-05T11:59:12;35.60;40.40
1468;DHT22;727;48.892;9.544;2022-08-05T12:01:53;35.40;40.90
1468;DHT22;727;48.892;9.544;2022-08-05T12:04:20;35.40;41.50
1468;DHT22;727;48.892;9.544;2022-08-05T12:06:47;35.50;41.40
1468;DHT22;727;48.892;9.544;2022-08-05T12:09:17;35.80;40.90
1468;DHT22;727;48.892;9.544;2022-08-05T12:11:46;35.90;40.30
1468;DHT22;727;48.892;9.544;2022-08-05T12:14:13;35.80;41.20
1468;DHT22;727;48.892;9.544;2022-08-05T12:16:41;36.20;40.30
1468;DHT22;727;48.892;9.544;2022-08-05T12:19:10;36.30;40.00
1468;DHT22;727;48.892;9.544;2022-08-05T12:21:42;36.70;39.80
1468;DHT22;727;48.892;9.544;2022-08-05T12:24:11;36.90;39.40
1468;DHT22;727;48.892;9.544;2022-08-05T12:26:40;37.00;39.40
1468;DHT22;727;48.892;9.544;2022-08-05T12:29:10;36.90;39.20
1468;DHT22;727;48.892;9.544;2022-08-05T12:31:38;36.30;39.40
1468;DHT22;727;48.892;9.544;2022-08-05T12:34:06;35.90;40.40
1468;DHT22;727;48.892;9.544;2022-08-05T12:36:35;36.10;40.90
1468;DHT22;727;48.892;9.544;2022-08-05T12:39:03;36.20;40.30
1468;DHT22;727;48.892;9.544;2022-08-05T12:41:31;36.30;39.80
1468;DHT22;727;48.892;9.544;2022-08-05T12:44:00;36.60;39.70
1468;DHT22;727;48.892;9.544;2022-08-05T12:46:29;36.70;39.10
1468;DHT22;727;48.892;9.544;2022-08-05T12:49:00;36.80;38.90
1468;DHT22;727;48.892;9.544;2022-08-05T12:51:27;36.70;38.90
1468;DHT22;727;48.892;9.544;2022-08-05T12:53:59;36.50;39.30
1468;DHT22;727;48.892;9.544;2022-08-05T12:56:28;36.40;39.40
1468;DHT22;727;48.892;9.544;2022-08-05T12:59:13;36.30;39.60
1468;DHT22;727;48.892;9.544;2022-08-05T13:01:41;36.20;39.50
1468;DHT22;727;48.892;9.544;2022-08-05T13:04:08;36.10;39.60
1468;DHT22;727;48.892;9.544;2022-08-05T13:06:39;36.50;39.40
1468;DHT22;727;48.892;9.544;2022-08-05T13:09:09;36.60;39.10
1468;DHT22;727;48.892;9.544;2022-08-05T13:11:42;36.60;38.60
1468;DHT22;727;48.892;9.544;2022-08-05T13:14:19;36.20;39.50
1468;DHT22;727;48.892;9.544;2022-08-05T13:16:48;36.10;39.70
1468;DHT22;727;48.892;9.544;2022-08-05T13:19:15;36.00;39.40
1468;DHT22;727;48.892;9.544;2022-08-05T13:21:44;36.30;39.30
1468;DHT22;727;48.892;9.544;2022-08-05T13:24:13;36.20;38.70
1468;DHT22;727;48.892;9.544;2022-08-05T13:26:41;36.20;39.40
1468;DHT22;727;48.892;9.544;2022-08-05T13:29:11;36.10;39.50
1468;DHT22;727;48.892;9.544;2022-08-05T13:31:38;36.10;39.50
1468;DHT22;727;48.892;9.544;2022-08-05T13:34:05;36.20;39.70
1468;DHT22;727;48.892;9.544;2022-08-05T13:36:32;35.90;39.70
1468;DHT22;727;48.892;9.544;2022-08-05T13:38:59;35.90;39.60
1468;DHT22;727;48.892;9.544;2022-08-05T13:41:28;36.30;39.50
1468;DHT22;727;48.892;9.544;2022-08-05T13:43:55;36.30;38.50
1468;DHT22;727;48.892;9.544;2022-08-05T13:46:22;36.20;39.20
1468;DHT22;727;48.892;9.544;2022-08-05T13:48:49;36.30;40.10
1468;DHT22;727;48.892;9.544;2022-08-05T13:51:25;36.10;39.80
1468;DHT22;727;48.892;9.544;2022-08-05T13:53:53;35.70;40.90
1468;DHT22;727;48.892;9.544;2022-08-05T13:56:19;35.10;41.40
1468;DHT22;727;48.892;9.544;2022-08-05T13:58:47;35.00;41.60
1468;DHT22;727;48.892;9.544;2022-08-05T14:01:14;34.90;41.70
1468;DHT22;727;48.892;9.544;2022-08-05T14:03:41;34.90;41.50
1468;DHT22;727;48.892;9.544;2022-08-05T14:06:07;34.80;41.70
1468;DHT22;727;48.892;9.544;2022-08-05T14:08:33;35.00;41.40
1468;DHT22;727;48.892;9.544;2022-08-05T14:11:00;35.10;41.50
1468;DHT22;727;48.892;9.544;2022-08-05T14:13:26;35.40;41.40
1468;DHT22;727;48.892;9.544;2022-08-05T14:15:54;35.30;41.30
1468;DHT22;727;48.892;9.544;2022-08-05T14:18:21;35.40;41.30
1468;DHT22;727;48.892;9.544;2022-08-05T14:20:47;35.50;41.00
1468;DHT22;727;48.892;9.544;2022-08-05T14:23:15;35.60;40.60
1468;DHT22;727;48.892;9.544;2022-08-05T14:25:42;35.40;40.60
1468;DHT22;727;48.892;9.544;2022-08-05T14:28:08;35.20;41.80
1468;DHT22;727;48.892;9.544;2022-08-05T14:30:35;35.00;42.30
1468;DHT22;727;48.892;9.544;2022-08-05T14:33:03;34.90;42.60
1468;DHT22;727;48.892;9.544;2022-08-05T14:35:34;34.70;42.80
1468;DHT22;727;48.892;9.544;2022-08-05T14:38:00;34.50;43.50
1468;DHT22;727;48.892;9.544;2022-08-05T14:40:27;34.10;43.30
1468;DHT22;727;48.892;9.544;2022-08-05T14:42:54;34.00;43.70
1468;DHT22;727;48.892;9.544;2022-08-05T14:45:21;33.70;44.60
1468;DHT22;727;48.892;9.544;2022-08-05T14:47:47;33.50;44.90
1468;DHT22;727;48.892;9.544;2022-08-05T14:50:15;33.30;45.80
1468;DHT22;727;48.892;9.544;2022-08-05T14:52:42;33.10;45.90
1468;DHT22;727;48.892;9.544;2022-08-05T14:55:09;32.90;46.20
1468;DHT22;727;48.892;9.544;2022-08-05T14:57:35;32.60;46.10
1468;DHT22;727;48.892;9.544;2022-08-05T15:00:03;32.40;47.40
1468;DHT22;727;48.892;9.544;2022-08-05T15:02:30;32.30;47.10
1468;DHT22;727;48.892;9.544;2022-08-05T15:04:56;32.20;47.40
1468;DHT22;727;48.892;9.544;2022-08-05T15:07:25;32.00;47.70
1468;DHT22;727;48.892;9.544;2022-08-05T15:09:51;31.90;47.90
1468;DHT22;727;48.892;9.544;2022-08-05T15:12:18;31.90;48.70
1468;DHT22;727;48.892;9.544;2022-08-05T15:14:45;31.80;49.00
1468;DHT22;727;48.892;9.544;2022-08-05T15:17:12;31.80;49.30
1468;DHT22;727;48.892;9.544;2022-08-05T15:19:40;31.80;49.20
1468;DHT22;727;48.892;9.544;2022-08-05T15:22:06;31.70;49.20
1468;DHT22;727;48.892;9.544;2022-08-05T15:24:35;31.60;49.70
1468;DHT22;727;48.892;9.544;2022-08-05T15:27:03;31.40;50.80
1468;DHT22;727;48.892;9.544;2022-08-05T15:29:29;31.10;51.30
1468;DHT22;727;48.892;9.544;2022-08-05T15:31:56;31.10;51.70
1468;DHT22;727;48.892;9.544;2022-08-05T15:34:23;31.00;52.20
1468;DHT22;727;48.892;9.544;2022-08-05T15:36:50;31.00;52.10
1468;DHT22;727;48.892;9.544;2022-08-05T15:39:17;31.10;52.20
1468;DHT22;727;48.892;9.544;2022-08-05T15:41:45;31.10;52.40
1468;DHT22;727;48.892;9.544;2022-08-05T15:44:12;31.10;52.20
1468;DHT22;727;48.892;9.544;2022-08-05T15:46:38;31.10;52.10
1468;DHT22;727;48.892;9.544;2022-08-05T15:49:05;31.10;52.60
1468;DHT22;727;48.892;9.544;2022-08-05T15:51:32;31.10;52.70
1468;DHT22;727;48.892;9.544;2022-08-05T15:53:59;31.00;53.60
1468;DHT22;727;48.892;9.544;2022-08-05T15:56:25;31.00;54.10
1468;DHT22;727;48.892;9.544;2022-08-05T15:58:54;31.10;61.10
1468;DHT22;727;48.892;9.544;2022-08-05T16:01:21;31.10;57.70
1468;DHT22;727;48.892;9.544;2022-08-05T16:03:49;30.90;61.30
1468;DHT22;727;48.892;9.544;2022-08-05T16:06:17;30.90;63.00
1468;DHT22;727;48.892;9.544;2022-08-05T16:08:44;30.80;61.70
1468;DHT22;727;48.892;9.544;2022-08-05T16:11:11;30.60;63.50
1468;DHT22;727;48.892;9.544;2022-08-05T16:13:38;30.60;62.90
1468;DHT22;727;48.892;9.544;2022-08-05T16:16:07;30.50;62.50
1468;DHT22;727;48.892;9.544;2022-08-05T16:18:36;30.40;64.30
1468;DHT22;727;48.892;9.544;2022-08-05T16:21:03;30.30;63.20
1468;DHT22;727;48.892;9.544;2022-08-05T16:23:30;30.00;61.90
1468;DHT22;727;48.892;9.544;2022-08-05T16:26:04;29.90;61.50
1468;DHT22;727;48.892;9.544;2022-08-05T16:28:31;29.70;61.60
1468;DHT22;727;48.892;9.544;2022-08-05T16:30:58;29.70;61.20
1468;DHT22;727;48.892;9.544;2022-08-05T16:33:26;29.70;60.10
1468;DHT22;727;48.892;9.544;2022-08-05T16:35:56;29.60;59.80
1468;DHT22;727;48.892;9.544;2022-08-05T16:38:23;29.60;60.00
1468;DHT22;727;48.892;9.544;2022-08-05T16:40:50;29.50;59.70
1468;DHT22;727;48.892;9.544;2022-08-05T16:43:18;29.30;59.80
1468;DHT22;727;48.892;9.544;2022-08-05T16:45:47;29.30;60.20
1468;DHT22;727;48.892;9.544;2022-08-05T16:48:14;29.20;60.40
1468;DHT22;727;48.892;9.544;2022-08-05T16:50:42;29.10;61.00
1468;DHT22;727;48.892;9.544;2022-08-05T16:53:09;29.00;61.30
1468;DHT22;727;48.892;9.544;2022-08-05T16:55:36;28.90;61.50
1468;DHT22;727;48.892;9.544;2022-08-05T16:58:03;28.90;61.60
1468;DHT22;727;48.892;9.544;2022-08-05T17:00:30;28.80;61.50
1468;DHT22;727;48.892;9.544;2022-08-05T17:02:56;28.70;61.70
1468;DHT22;727;48.892;9.544;2022-08-05T17:05:23;28.50;61.70
1468;DHT22;727;48.892;9.544;2022-08-05T17:07:51;28.40;63.20
1468;DHT22;727;48.892;9.544;2022-08-05T17:10:18;28.30;63.00
1468;DHT22;727;48.892;9.544;2022-08-05T17:12:45;28.30;63.60
1468;DHT22;727;48.892;9.544;2022-08-05T17:15:13;28.20;63.60
1468;DHT22;727;48.892;9.544;2022-08-05T17:17:40;28.10;63.50